createdAt,value
2023-04-16T00:03:00.445Z,10.69
2023-04-16T00:08:02.733Z,10.74
2023-04-16T00:13:04.586Z,10.64
2023-04-16T00:18:06.413Z,10.55
2023-04-16T00:23:08.216Z,10.49
2023-04-16T00:28:11.093Z,10.53
2023-04-16T00:33:13.005Z,10.48
2023-04-16T00:38:14.923Z,10.35
2023-04-16T00:43:24.925Z,10.32
2023-04-16T00:48:28.347Z,10.26
2023-04-16T00:53:30.845Z,10.01
2023-04-16T00:58:35.655Z,9.78
2023-04-16T01:03:39.853Z,9.64
2023-04-16T01:08:41.836Z,9.59
2023-04-16T01:13:43.726Z,9.60
2023-04-16T01:18:46.157Z,9.59
2023-04-16T01:23:48.116Z,9.51
2023-04-16T01:28:49.910Z,9.31
2023-04-16T01:33:51.815Z,9.14
2023-04-16T01:38:53.821Z,9.06
2023-04-16T01:43:55.852Z,9.13
2023-04-16T01:48:59.504Z,9.21
2023-04-16T01:54:01.338Z,9.08
2023-04-16T01:59:03.386Z,8.89
2023-04-16T02:04:12.119Z,8.78
2023-04-16T02:09:14.312Z,8.71
2023-04-16T02:14:16.170Z,8.66
2023-04-16T02:19:18.290Z,8.60
2023-04-16T02:24:21.786Z,8.58
2023-04-16T02:29:24.339Z,8.49
2023-04-16T02:34:33.737Z,8.56
2023-04-16T02:39:35.639Z,8.56
2023-04-16T02:44:37.453Z,8.48
2023-04-16T02:49:39.489Z,8.44
2023-04-16T02:54:41.282Z,8.36
2023-04-16T02:59:43.212Z,8.33
2023-04-16T03:04:45.076Z,8.35
2023-04-16T03:09:46.941Z,8.43
2023-04-16T03:14:51.680Z,8.58
2023-04-16T03:19:53.621Z,8.72
2023-04-16T03:24:55.434Z,8.80
2023-04-16T03:29:57.307Z,8.73
2023-04-16T03:35:00.072Z,8.53
2023-04-16T03:40:02.585Z,8.34
2023-04-16T03:45:06.800Z,8.27
2023-04-16T03:50:09.299Z,8.34
2023-04-16T03:55:11.476Z,8.27
2023-04-16T04:00:14.260Z,8.21
2023-04-16T04:05:43.072Z,8.19
2023-04-16T04:10:48.008Z,8.09
2023-04-16T04:15:51.004Z,8.03
2023-04-16T04:20:52.941Z,7.92
2023-04-16T04:25:58.455Z,7.90
2023-04-16T04:31:02.117Z,7.97
2023-04-16T04:36:06.208Z,7.93
2023-04-16T04:41:09.341Z,8.05
2023-04-16T04:46:13.212Z,8.05
2023-04-16T04:51:16.100Z,8.13
2023-04-16T04:56:20.881Z,8.28
2023-04-16T05:01:23.488Z,8.44
2023-04-16T05:06:26.362Z,8.55
2023-04-16T05:11:29.853Z,8.66
2023-04-16T05:16:31.653Z,8.75
2023-04-16T05:21:34.112Z,8.92
2023-04-16T05:26:35.979Z,9.10
2023-04-16T05:31:37.854Z,9.25
2023-04-16T05:36:39.643Z,9.37
2023-04-16T05:41:41.407Z,9.47
2023-04-16T05:46:43.230Z,9.54
2023-04-16T05:51:45.036Z,9.52
2023-04-16T05:56:46.797Z,9.63
2023-04-16T06:01:48.720Z,9.78
2023-04-16T06:06:50.783Z,9.94
2023-04-16T06:11:52.661Z,10.09
2023-04-16T06:16:54.455Z,10.19
2023-04-16T06:21:57.138Z,10.31
2023-04-16T06:26:58.907Z,10.43
2023-04-16T06:32:00.866Z,10.55
2023-04-16T06:37:02.657Z,10.62
2023-04-16T06:42:04.856Z,10.78
2023-04-16T06:47:06.683Z,11.02
2023-04-16T06:52:08.577Z,11.21
2023-04-16T06:57:11.314Z,11.42
2023-04-16T07:02:13.328Z,11.63
2023-04-16T07:07:15.281Z,11.85
2023-04-16T07:12:17.104Z,11.99
2023-04-16T07:17:19.056Z,12.15
2023-04-16T07:22:21.141Z,12.39
2023-04-16T07:27:22.914Z,12.60
2023-04-16T07:32:24.909Z,12.86
2023-04-16T07:37:26.829Z,13.06
2023-04-16T07:42:28.760Z,13.17
2023-04-16T07:47:30.557Z,13.32
2023-04-16T07:52:32.497Z,13.43
2023-04-16T07:57:34.431Z,13.56
2023-04-16T08:02:36.442Z,13.74
2023-04-16T08:07:38.308Z,13.88
2023-04-16T08:12:40.217Z,14.14
2023-04-16T08:17:42.081Z,14.27
2023-04-16T08:22:44.798Z,14.44
2023-04-16T08:27:46.591Z,14.62
2023-04-16T08:32:50.156Z,14.74
2023-04-16T08:37:52.294Z,14.91
2023-04-16T08:42:56.345Z,15.11
2023-04-16T08:47:58.524Z,15.19
2023-04-16T08:53:05.596Z,15.28
2023-04-16T08:58:16.442Z,15.21
2023-04-16T09:03:20.415Z,15.14
2023-04-16T09:08:22.515Z,15.12
2023-04-16T09:13:25.319Z,15.19
2023-04-16T09:18:28.514Z,15.19
2023-04-16T09:23:30.662Z,15.32
2023-04-16T09:28:43.414Z,15.58
2023-04-16T09:34:02.203Z,15.74
2023-04-16T09:39:04.376Z,15.85
2023-04-16T09:44:06.267Z,15.89
2023-04-16T09:49:16.202Z,15.91
2023-04-16T09:54:20.404Z,15.87
2023-04-16T09:59:24.052Z,15.80
2023-04-16T10:04:26.026Z,15.86
2023-04-16T10:09:32.293Z,15.88
2023-04-16T10:14:35.249Z,15.97
2023-04-16T10:19:37.500Z,16.02
2023-04-16T10:24:41.251Z,15.96
2023-04-16T10:29:44.150Z,16.03
2023-04-16T10:34:47.037Z,16.04
2023-04-16T10:39:49.802Z,15.99
2023-04-16T10:44:51.651Z,15.93
2023-04-16T10:49:53.458Z,16.03
2023-04-16T10:54:55.788Z,16.14
2023-04-16T10:59:59.417Z,16.15
2023-04-16T11:05:02.021Z,16.27
2023-04-16T11:10:05.824Z,16.30
2023-04-16T11:15:14.171Z,16.33
2023-04-16T11:20:34.039Z,16.36
2023-04-16T11:25:35.831Z,16.36
2023-04-16T11:30:39.418Z,16.30
2023-04-16T11:35:41.585Z,16.25
2023-04-16T11:40:43.523Z,16.30
2023-04-16T11:46:27.007Z,16.39
2023-04-16T11:51:30.107Z,16.41
2023-04-16T11:56:35.841Z,16.47
2023-04-16T12:01:39.407Z,16.53
2023-04-16T12:06:41.732Z,16.63
2023-04-16T12:11:43.769Z,16.78
2023-04-16T12:16:45.689Z,16.74
2023-04-16T12:21:49.520Z,16.73
2023-04-16T12:27:03.252Z,16.74
2023-04-16T12:32:05.246Z,16.78
2023-04-16T12:37:11.105Z,16.91
2023-04-16T12:42:12.915Z,17.09
2023-04-16T12:47:14.786Z,17.22
2023-04-16T12:52:16.537Z,17.20
2023-04-16T12:57:18.462Z,17.18
2023-04-16T13:02:20.508Z,17.20
2023-04-16T13:07:22.568Z,17.13
2023-04-16T13:12:24.377Z,17.15
2023-04-16T13:17:26.306Z,17.15
2023-04-16T13:22:28.579Z,16.99
2023-04-16T13:27:32.166Z,16.89
2023-04-16T13:32:34.125Z,17.05
2023-04-16T13:37:35.947Z,17.16
2023-04-16T13:42:37.806Z,17.23
2023-04-16T13:47:43.651Z,17.20
2023-04-16T13:52:45.544Z,17.16
2023-04-16T13:57:47.825Z,17.12
2023-04-16T14:02:50.050Z,17.13
2023-04-16T14:07:52.123Z,17.13
2023-04-16T14:12:54.204Z,17.07
2023-04-16T14:17:56.535Z,17.02
2023-04-16T14:22:58.758Z,16.94
2023-04-16T14:28:01.204Z,16.85
2023-04-16T14:33:05.894Z,16.73
2023-04-16T14:38:07.838Z,16.65
2023-04-16T14:43:09.633Z,16.45
2023-04-16T14:48:11.549Z,16.25
2023-04-16T14:53:13.753Z,16.09
2023-04-16T14:58:15.713Z,16.11
2023-04-16T15:03:17.839Z,16.13
2023-04-16T15:08:19.774Z,16.09
2023-04-16T15:13:21.572Z,16.02
2023-04-16T15:18:23.380Z,15.94
2023-04-16T15:23:25.256Z,15.94
2023-04-16T15:28:27.205Z,16.05
2023-04-16T15:33:29.109Z,16.14
2023-04-16T15:38:31.123Z,16.14
2023-04-16T15:43:32.907Z,16.17
2023-04-16T15:48:34.813Z,16.12
2023-04-16T15:53:36.624Z,15.99
2023-04-16T15:58:38.430Z,15.84
2023-04-16T16:03:40.491Z,15.65
2023-04-16T16:08:42.643Z,15.48
2023-04-16T16:13:44.419Z,15.29
2023-04-16T16:18:46.250Z,15.18
2023-04-16T16:23:48.047Z,15.06
2023-04-16T16:28:49.894Z,15.03
2023-04-16T16:33:51.780Z,15.05
2023-04-16T16:38:55.212Z,14.99
2023-04-16T16:43:59.230Z,14.84
2023-04-16T16:49:01.408Z,14.79
2023-04-16T16:54:03.671Z,14.74
2023-04-16T16:59:06.279Z,14.69
2023-04-16T17:04:08.482Z,14.72
2023-04-16T17:09:11.556Z,14.70
2023-04-16T17:14:14.034Z,14.57
2023-04-16T17:19:17.525Z,14.53
2023-04-16T17:24:20.068Z,14.51
2023-04-16T17:29:25.980Z,14.48
2023-04-16T17:34:28.337Z,14.41
2023-04-16T17:39:30.137Z,14.28
2023-04-16T17:44:31.946Z,14.16
2023-04-16T17:49:33.853Z,14.04
2023-04-16T17:54:36.185Z,13.96
2023-04-16T17:59:38.203Z,13.90
2023-04-16T18:04:40.223Z,13.81
2023-04-16T18:09:42.197Z,13.80
2023-04-16T18:14:45.038Z,13.78
2023-04-16T18:19:46.941Z,13.73
2023-04-16T18:24:48.740Z,13.61
2023-04-16T18:29:51.395Z,13.51
2023-04-16T18:34:53.805Z,13.48
2023-04-16T18:39:57.923Z,13.49
2023-04-16T18:45:00.112Z,13.45
2023-04-16T18:50:02.122Z,13.40
2023-04-16T18:55:04.135Z,13.35
2023-04-16T19:00:12.806Z,13.37
2023-04-16T19:05:14.661Z,13.36
2023-04-16T19:10:16.727Z,13.32
2023-04-16T19:15:18.830Z,13.33
2023-04-16T19:20:21.328Z,13.35
2023-04-16T19:25:23.107Z,13.31
2023-04-16T19:30:25.582Z,13.25
2023-04-16T19:35:28.190Z,13.21
2023-04-16T19:40:29.969Z,13.22
2023-04-16T19:45:31.967Z,13.22
2023-04-16T19:50:33.776Z,13.21
2023-04-16T19:55:35.703Z,13.17
2023-04-16T20:00:40.767Z,13.15
2023-04-16T20:05:42.723Z,13.17
2023-04-16T20:10:44.554Z,13.13
2023-04-16T20:15:47.303Z,13.14
2023-04-16T20:20:50.810Z,13.19
2023-04-16T20:25:52.658Z,13.17
2023-04-16T20:30:54.677Z,13.13
2023-04-16T20:35:56.632Z,13.17
2023-04-16T20:41:11.170Z,13.20
2023-04-16T20:46:12.959Z,13.22
2023-04-16T20:51:14.806Z,13.20
2023-04-16T20:56:17.032Z,13.17
2023-04-16T21:01:20.729Z,13.15
2023-04-16T21:06:22.651Z,13.11
2023-04-16T21:11:24.555Z,13.07
2023-04-16T21:16:26.362Z,13.03
2023-04-16T21:21:28.405Z,12.96
2023-04-16T21:26:30.370Z,12.98
2023-04-16T21:31:32.216Z,12.99
2023-04-16T21:36:34.243Z,12.96
2023-04-16T21:41:36.156Z,12.88
2023-04-16T21:46:37.988Z,12.82
2023-04-16T21:51:40.732Z,12.74
2023-04-16T21:56:42.628Z,12.70
2023-04-16T22:01:44.421Z,12.65
2023-04-16T22:06:46.346Z,12.64
2023-04-16T22:11:48.115Z,12.63
2023-04-16T22:16:51.809Z,12.64
2023-04-16T22:21:54.099Z,12.70
2023-04-16T22:26:57.057Z,12.72
2023-04-16T22:32:00.789Z,12.70
2023-04-16T22:37:03.174Z,12.69
2023-04-16T22:42:05.204Z,12.70
2023-04-16T22:47:06.987Z,12.66
2023-04-16T22:52:08.922Z,12.60
2023-04-16T22:57:10.795Z,12.55
2023-04-16T23:02:12.574Z,12.51
2023-04-16T23:07:15.652Z,12.53
2023-04-16T23:12:17.717Z,12.53
2023-04-16T23:17:19.493Z,12.55
2023-04-16T23:22:21.297Z,12.53
2023-04-16T23:27:23.109Z,12.53
2023-04-16T23:32:25.001Z,12.46
2023-04-16T23:37:26.965Z,12.42
2023-04-16T23:42:28.725Z,12.38
2023-04-16T23:47:30.572Z,12.35
2023-04-16T23:52:32.372Z,12.33
2023-04-16T23:57:34.153Z,12.25
